Sintra Airport Sintra PT
ICAO: LPST
IATA:
Category: Medium
Scheduled Services: No

Elevation: 440 ft
TransAlt. 4000 ft.

Airport Communications:
APP:118.6
GND:122.1
TWR:119.85

LPST Zoom In..

If you have problems with the map follow the link
https://www.worldairports.se/pages/airport.php?
ICAO=LPST

Runways:

(A) RW 14 length 5906 ft width 131 ft
---- / hdg 139

(B) RW 32 length 5906 ft width 131 ft
---- / hdg 319

Location; LPST
Day. 20 / Time. 14.00 Zulu
* QNH: 1015
* Temperature: 23° c. 73.4°f.
* Wind from: 110° Speed 08 kn.
Dewpoint: 12° c.
Visibility: 10 km or more.
Clouds: Scattered 3000 ft.

LPST 201400Z 11008KT 9999 SCT030 23/12 Q1015


Wind From 110°
Speed 08 kn.

 
 
jpsmedia.com for Web Design worldairports.se 2018   terms of use